createdAt,value
2023-01-17T00:02:13.863Z,96076.41
2023-01-17T00:04:59.137Z,96074.00
2023-01-17T00:07:45.311Z,96075.22
2023-01-17T00:10:18.002Z,96062.59
2023-01-17T00:12:49.736Z,96064.03
2023-01-17T00:15:19.609Z,96063.41
2023-01-17T00:17:46.965Z,96066.06
2023-01-17T00:20:32.823Z,96063.41
2023-01-17T00:23:18.151Z,96047.09
2023-01-17T00:26:03.101Z,96064.81
2023-01-17T00:28:40.571Z,96069.47
2023-01-17T00:31:09.642Z,96074.78
2023-01-17T00:33:36.584Z,96072.53
2023-01-17T00:36:05.048Z,96073.97
2023-01-17T00:38:33.965Z,96066.59
2023-01-17T00:41:06.904Z,96055.16
2023-01-17T00:43:52.576Z,96048.66
2023-01-17T00:46:38.719Z,96062.69
2023-01-17T00:49:24.596Z,96062.28
2023-01-17T00:52:09.473Z,96062.28
2023-01-17T00:54:54.380Z,96061.66
2023-01-17T00:57:39.239Z,96055.13
2023-01-17T01:00:24.873Z,96054.91
2023-01-17T01:03:09.749Z,96066.09
2023-01-17T01:05:56.108Z,96065.22
2023-01-17T01:08:46.586Z,96062.81
2023-01-17T01:11:35.950Z,96055.88
2023-01-17T01:14:21.774Z,96071.56
2023-01-17T01:17:06.897Z,96061.38
2023-01-17T01:19:52.143Z,96068.88
2023-01-17T01:22:37.639Z,96073.16
2023-01-17T01:25:22.884Z,96075.38
2023-01-17T01:28:07.859Z,96082.66
2023-01-17T01:30:52.953Z,96071.66
2023-01-17T01:33:20.132Z,96082.00
2023-01-17T01:35:49.256Z,96083.19
2023-01-17T01:38:16.399Z,96074.84
2023-01-17T01:40:48.089Z,96076.66
2023-01-17T01:43:16.762Z,96083.34
2023-01-17T01:45:48.539Z,96067.66
2023-01-17T01:48:14.918Z,96084.78
2023-01-17T01:50:41.370Z,96079.31
2023-01-17T01:53:07.953Z,96077.66
2023-01-17T01:55:43.078Z,96083.81
2023-01-17T01:58:22.787Z,96080.38
2023-01-17T02:00:49.348Z,96070.47
2023-01-17T02:03:24.474Z,96079.63
2023-01-17T02:05:51.714Z,96075.34
2023-01-17T02:08:21.228Z,96077.34
2023-01-17T02:10:48.132Z,96075.72
2023-01-17T02:13:18.937Z,96073.06
2023-01-17T02:15:51.408Z,96071.66
2023-01-17T02:18:46.574Z,96071.28
2023-01-17T02:21:28.016Z,96062.97
2023-01-17T02:24:13.337Z,96066.25
2023-01-17T02:26:58.563Z,96061.75
2023-01-17T02:29:31.061Z,96060.34
2023-01-17T02:32:35.576Z,96059.97
2023-01-17T02:35:15.959Z,96058.78
2023-01-17T02:38:05.993Z,96058.16
2023-01-17T02:40:38.678Z,96055.50
2023-01-17T02:43:10.658Z,96057.56
2023-01-17T02:45:37.404Z,96055.91
2023-01-17T02:48:08.038Z,96063.06
2023-01-17T02:51:22.456Z,96050.44
2023-01-17T02:53:54.923Z,96046.16
2023-01-17T02:57:00.038Z,96046.78
2023-01-17T02:59:44.972Z,96040.88
2023-01-17T03:02:25.029Z,96021.13
2023-01-17T03:04:58.315Z,96008.09
2023-01-17T03:07:26.942Z,96010.91
2023-01-17T03:09:59.878Z,96003.19
2023-01-17T03:12:30.903Z,96007.47
2023-01-17T03:14:57.458Z,96004.59
2023-01-17T03:17:25.026Z,96009.47
2023-01-17T03:19:51.453Z,96006.22
2023-01-17T03:22:17.891Z,96001.72
2023-01-17T03:24:44.311Z,96004.19
2023-01-17T03:27:10.776Z,96012.94
2023-01-17T03:29:37.109Z,96006.22
2023-01-17T03:32:03.717Z,95997.25
2023-01-17T03:34:30.044Z,96001.38
2023-01-17T03:36:56.417Z,96010.72
2023-01-17T03:39:22.900Z,95995.03
2023-01-17T03:41:49.607Z,95998.34
2023-01-17T03:44:17.842Z,95990.63
2023-01-17T03:46:44.465Z,95991.66
2023-01-17T03:49:11.100Z,95997.78
2023-01-17T03:51:37.393Z,95989.84
2023-01-17T03:54:04.150Z,95991.25
2023-01-17T03:56:30.585Z,95990.03
2023-01-17T03:58:58.422Z,95995.16
2023-01-17T04:01:25.339Z,95996.97
2023-01-17T04:03:51.882Z,96001.47
2023-01-17T04:06:18.258Z,95991.28
2023-01-17T04:08:44.696Z,95993.75
2023-01-17T04:11:11.107Z,95997.41
2023-01-17T04:13:37.559Z,95985.34
2023-01-17T04:16:04.246Z,95982.72
2023-01-17T04:18:30.734Z,95983.34
2023-01-17T04:20:57.178Z,95960.13
2023-01-17T04:23:23.602Z,95973.41
2023-01-17T04:25:49.996Z,95968.50
2023-01-17T04:28:16.493Z,95967.28
2023-01-17T04:30:42.906Z,95958.09
2023-01-17T04:33:09.317Z,95957.91
2023-01-17T04:35:36.035Z,95964.41
2023-01-17T04:38:02.611Z,95958.53
2023-01-17T04:40:29.548Z,95950.16
2023-01-17T04:42:57.725Z,95945.06
2023-01-17T04:45:24.105Z,95946.91
2023-01-17T04:47:50.529Z,95944.06
2023-01-17T04:50:18.098Z,95941.19
2023-01-17T04:52:44.523Z,95929.16
2023-01-17T04:55:11.051Z,95932.63
2023-01-17T04:57:37.392Z,95925.72
2023-01-17T05:00:04.387Z,95924.47
2023-01-17T05:02:30.930Z,95928.56
2023-01-17T05:04:57.350Z,95929.38
2023-01-17T05:07:23.765Z,95928.75
2023-01-17T05:09:50.145Z,95919.81
2023-01-17T05:12:16.625Z,95911.44
2023-01-17T05:14:43.010Z,95905.31
2023-01-17T05:17:11.083Z,95898.34
2023-01-17T05:19:37.591Z,95897.34
2023-01-17T05:22:14.698Z,95903.66
2023-01-17T05:24:41.932Z,95898.75
2023-01-17T05:27:09.093Z,95898.63
2023-01-17T05:29:36.550Z,95898.22
2023-01-17T05:32:03.529Z,95892.94
2023-01-17T05:34:30.233Z,95890.06
2023-01-17T05:36:56.565Z,95890.41
2023-01-17T05:39:23.041Z,95879.41
2023-01-17T05:41:49.433Z,95880.13
2023-01-17T05:44:15.909Z,95876.47
2023-01-17T05:46:42.491Z,95863.38
2023-01-17T05:49:08.993Z,95872.00
2023-01-17T05:51:37.747Z,95872.41
2023-01-17T05:54:05.053Z,95866.00
2023-01-17T05:56:31.698Z,95877.78
2023-01-17T05:58:58.008Z,95873.59
2023-01-17T06:01:24.698Z,95874.72
2023-01-17T06:03:51.241Z,95870.84
2023-01-17T06:06:17.633Z,95868.56
2023-01-17T06:08:44.373Z,95865.06
2023-01-17T06:11:10.750Z,95862.63
2023-01-17T06:13:37.180Z,95854.44
2023-01-17T06:16:04.192Z,95849.75
2023-01-17T06:18:31.706Z,95848.91
2023-01-17T06:20:58.207Z,95839.34
2023-01-17T06:23:25.094Z,95837.28
2023-01-17T06:25:51.941Z,95841.38
2023-01-17T06:28:23.046Z,95845.63
2023-01-17T06:30:49.648Z,95841.56
2023-01-17T06:33:16.256Z,95835.03
2023-01-17T06:35:50.111Z,95840.69
2023-01-17T06:38:17.201Z,95837.84
2023-01-17T06:40:43.902Z,95838.84
2023-01-17T06:43:10.544Z,95836.41
2023-01-17T06:45:36.875Z,95830.88
2023-01-17T06:48:05.157Z,95831.81
2023-01-17T06:50:32.650Z,95822.38
2023-01-17T06:53:02.152Z,95824.13
2023-01-17T06:55:30.150Z,95815.91
2023-01-17T06:57:59.651Z,95809.16
2023-01-17T07:00:27.486Z,95803.88
2023-01-17T07:02:54.351Z,95804.81
2023-01-17T07:05:21.563Z,95794.81
2023-01-17T07:07:48.378Z,95801.94
2023-01-17T07:10:15.442Z,95795.81
2023-01-17T07:12:42.410Z,95798.03
2023-01-17T07:15:09.582Z,95793.50
2023-01-17T07:17:36.032Z,95789.97
2023-01-17T07:20:02.878Z,95783.41
2023-01-17T07:22:29.242Z,95785.31
2023-01-17T07:24:58.499Z,95791.06
2023-01-17T07:27:30.322Z,95788.41
2023-01-17T07:29:57.797Z,95785.22
2023-01-17T07:32:26.456Z,95791.28
2023-01-17T07:34:53.421Z,95788.84
2023-01-17T07:37:20.294Z,95789.28
2023-01-17T07:39:46.901Z,95792.75
2023-01-17T07:42:14.470Z,95789.38
2023-01-17T07:44:43.916Z,95800.28
2023-01-17T07:47:11.431Z,95796.91
2023-01-17T07:49:38.152Z,95796.28
2023-01-17T07:52:08.804Z,95792.25
2023-01-17T07:54:35.760Z,95787.63
2023-01-17T07:57:03.923Z,95787.03
2023-01-17T07:59:34.397Z,95783.59
2023-01-17T08:02:00.934Z,95785.91
2023-01-17T08:04:27.455Z,95781.47
2023-01-17T08:06:54.874Z,95796.56
2023-01-17T08:09:21.391Z,95785.63
2023-01-17T08:11:48.181Z,95786.63
2023-01-17T08:14:14.584Z,95784.50
2023-01-17T08:16:41.870Z,95769.56
2023-01-17T08:19:08.414Z,95769.78
2023-01-17T08:21:34.808Z,95766.16
2023-01-17T08:24:01.249Z,95762.38
2023-01-17T08:26:27.758Z,95754.47
2023-01-17T08:28:56.607Z,95751.00
2023-01-17T08:31:24.168Z,95753.47
2023-01-17T08:33:50.845Z,95747.19
2023-01-17T08:36:17.241Z,95743.38
2023-01-17T08:38:43.640Z,95747.25
2023-01-17T08:41:10.321Z,95737.25
2023-01-17T08:43:36.730Z,95727.13
2023-01-17T08:46:03.471Z,95721.16
2023-01-17T08:48:29.892Z,95728.31
2023-01-17T08:51:00.491Z,95712.47
2023-01-17T08:53:27.059Z,95708.75
2023-01-17T08:56:01.478Z,95709.75
2023-01-17T08:58:30.724Z,95702.66
2023-01-17T09:01:06.011Z,95708.78
2023-01-17T09:03:38.856Z,95705.53
2023-01-17T09:06:09.417Z,95701.09
2023-01-17T09:08:36.373Z,95703.59
2023-01-17T09:11:21.093Z,95700.88
2023-01-17T09:13:47.483Z,95698.47
2023-01-17T09:16:13.981Z,95705.09
2023-01-17T09:18:40.412Z,95709.81
2023-01-17T09:21:15.162Z,95710.88
2023-01-17T09:23:42.094Z,95706.81
2023-01-17T09:26:18.818Z,95699.94
2023-01-17T09:28:45.398Z,95696.69
2023-01-17T09:31:11.751Z,95694.66
2023-01-17T09:33:38.578Z,95692.41
2023-01-17T09:36:05.435Z,95689.34
2023-01-17T09:38:32.772Z,95693.63
2023-01-17T09:41:01.110Z,95697.91
2023-01-17T09:43:44.286Z,95694.00
2023-01-17T09:46:22.637Z,95696.22
2023-01-17T09:49:34.509Z,95711.31
2023-01-17T09:52:01.970Z,95712.03
2023-01-17T09:54:34.216Z,95691.66
2023-01-17T09:57:36.382Z,95704.91
2023-01-17T10:00:27.552Z,95714.75
2023-01-17T10:03:21.403Z,95706.16
2023-01-17T10:06:03.213Z,95708.97
2023-01-17T10:08:55.924Z,95707.09
2023-01-17T10:11:33.398Z,95684.81
2023-01-17T10:14:42.842Z,95681.78
2023-01-17T10:17:42.288Z,95670.72
2023-01-17T10:20:41.339Z,95653.94
2023-01-17T10:23:22.115Z,95662.16
2023-01-17T10:25:50.279Z,95652.84
2023-01-17T10:28:26.035Z,95653.88
2023-01-17T10:30:59.519Z,95637.34
2023-01-17T10:33:30.600Z,95635.00
2023-01-17T10:36:10.153Z,95638.25
2023-01-17T10:38:38.508Z,95621.47
2023-01-17T10:41:10.693Z,95628.56
2023-01-17T10:44:14.844Z,95629.06
2023-01-17T10:46:45.682Z,95624.22
2023-01-17T10:49:21.182Z,95618.81
2023-01-17T10:52:02.371Z,95620.50
2023-01-17T10:54:49.408Z,95610.41
2023-01-17T10:57:24.871Z,95599.50
2023-01-17T10:59:52.827Z,95594.16
2023-01-17T11:02:25.779Z,95593.09
2023-01-17T11:04:55.566Z,95588.81
2023-01-17T11:07:26.958Z,95571.31
2023-01-17T11:09:55.612Z,95564.81
2023-01-17T11:12:24.787Z,95568.00
2023-01-17T11:15:19.721Z,95564.41
2023-01-17T11:17:53.233Z,95560.03
2023-01-17T11:20:32.659Z,95557.47
2023-01-17T11:23:05.073Z,95554.88
2023-01-17T11:25:34.004Z,95543.50
2023-01-17T11:28:07.829Z,95544.03
2023-01-17T11:30:34.330Z,95539.94
2023-01-17T11:33:00.702Z,95539.94
2023-01-17T11:35:32.356Z,95532.22
2023-01-17T11:38:11.955Z,95529.91
2023-01-17T11:40:43.994Z,95517.59
2023-01-17T11:43:27.377Z,95518.53
2023-01-17T11:46:17.825Z,95508.53
2023-01-17T11:48:59.526Z,95516.72
2023-01-17T11:51:34.968Z,95506.59
2023-01-17T11:54:18.319Z,95508.53
2023-01-17T11:56:46.241Z,95501.72
2023-01-17T11:59:20.892Z,95491.09
2023-01-17T12:01:55.814Z,95489.91
2023-01-17T12:04:27.396Z,95488.88
2023-01-17T12:07:10.336Z,95492.38
2023-01-17T12:09:48.044Z,95486.47
2023-01-17T12:13:13.022Z,95483.28
2023-01-17T12:15:54.914Z,95478.84
2023-01-17T12:18:50.331Z,95474.13
2023-01-17T12:21:26.497Z,95463.31
2023-01-17T12:24:21.562Z,95465.72
2023-01-17T12:27:13.087Z,95464.25
2023-01-17T12:29:54.554Z,95459.91
2023-01-17T12:32:39.011Z,95453.81
2023-01-17T12:35:20.284Z,95451.97
2023-01-17T12:38:05.500Z,95449.69
2023-01-17T12:40:34.814Z,95446.47
2023-01-17T12:43:13.256Z,95436.28
2023-01-17T12:45:44.523Z,95429.28
2023-01-17T12:48:21.798Z,95432.16
2023-01-17T12:51:07.981Z,95430.50
2023-01-17T12:53:46.576Z,95436.63
2023-01-17T12:56:20.098Z,95434.19
2023-01-17T12:58:52.577Z,95427.38
2023-01-17T13:01:39.561Z,95424.72
2023-01-17T13:04:25.217Z,95417.53
2023-01-17T13:07:18.094Z,95422.78
2023-01-17T13:09:51.019Z,95420.94
2023-01-17T13:12:20.899Z,95423.56
2023-01-17T13:14:48.157Z,95423.53
2023-01-17T13:17:31.590Z,95420.19
2023-01-17T13:20:18.521Z,95419.28
2023-01-17T13:22:46.789Z,95423.25
2023-01-17T13:25:30.677Z,95423.25
2023-01-17T13:28:03.259Z,95416.63
2023-01-17T13:30:58.870Z,95420.31
2023-01-17T13:33:25.265Z,95423.16
2023-01-17T13:36:13.964Z,95415.63
2023-01-17T13:38:58.033Z,95416.88
2023-01-17T13:41:50.555Z,95415.34
2023-01-17T13:44:23.076Z,95425.28
2023-01-17T13:46:58.775Z,95421.06
2023-01-17T13:49:33.979Z,95423.03
2023-01-17T13:52:18.581Z,95418.25
2023-01-17T13:54:55.256Z,95427.47
2023-01-17T13:57:32.814Z,95414.75
2023-01-17T14:00:22.961Z,95418.13
2023-01-17T14:02:54.710Z,95418.41
2023-01-17T14:05:42.426Z,95416.66
2023-01-17T14:08:21.762Z,95423.31
2023-01-17T14:10:51.997Z,95431.16
2023-01-17T14:13:33.638Z,95443.06
2023-01-17T14:16:01.119Z,95447.25
2023-01-17T14:18:33.052Z,95444.25
2023-01-17T14:21:10.462Z,95449.66
2023-01-17T14:23:47.605Z,95448.75
2023-01-17T14:26:19.922Z,95450.44
2023-01-17T14:28:46.467Z,95459.44
2023-01-17T14:31:15.482Z,95459.38
2023-01-17T14:33:43.215Z,95462.75
2023-01-17T14:36:24.800Z,95461.28
2023-01-17T14:38:51.465Z,95457.16
2023-01-17T14:41:20.467Z,95455.16
2023-01-17T14:43:49.313Z,95464.97
2023-01-17T14:46:25.154Z,95467.97
2023-01-17T14:48:59.283Z,95470.13
2023-01-17T14:51:25.971Z,95467.75
2023-01-17T14:53:54.068Z,95465.72
2023-01-17T14:56:20.479Z,95473.59
2023-01-17T14:58:46.917Z,95475.69
2023-01-17T15:01:17.612Z,95479.97
2023-01-17T15:03:54.743Z,95472.44
2023-01-17T15:06:38.627Z,95479.06
2023-01-17T15:09:16.431Z,95473.34
2023-01-17T15:11:44.330Z,95477.53
2023-01-17T15:14:21.989Z,95474.88
2023-01-17T15:16:51.782Z,95479.16
2023-01-17T15:19:19.605Z,95469.06
2023-01-17T15:21:50.684Z,95466.06
2023-01-17T15:24:27.433Z,95465.06
2023-01-17T15:26:54.541Z,95474.03
2023-01-17T15:29:28.523Z,95467.53
2023-01-17T15:32:00.435Z,95466.19
2023-01-17T15:34:36.189Z,95464.81
2023-01-17T15:37:08.519Z,95468.84
2023-01-17T15:39:40.422Z,95474.38
2023-01-17T15:42:19.356Z,95470.97
2023-01-17T15:44:49.166Z,95474.22
2023-01-17T15:47:40.621Z,95487.28
2023-01-17T15:50:29.884Z,95481.63
2023-01-17T15:53:00.973Z,95482.88
2023-01-17T15:55:36.412Z,95480.84
2023-01-17T15:58:05.857Z,95490.44
2023-01-17T16:00:39.363Z,95493.47
2023-01-17T16:03:31.881Z,95484.75
2023-01-17T16:06:00.790Z,95478.03
2023-01-17T16:08:39.492Z,95485.53
2023-01-17T16:11:07.382Z,95490.22
2023-01-17T16:13:38.990Z,95487.81
2023-01-17T16:16:23.616Z,95496.75
2023-01-17T16:19:00.543Z,95493.47
2023-01-17T16:21:29.766Z,95501.44
2023-01-17T16:23:56.877Z,95504.91
2023-01-17T16:26:24.110Z,95502.88
2023-01-17T16:28:50.785Z,95504.94
2023-01-17T16:31:17.984Z,95500.84
2023-01-17T16:33:45.898Z,95499.44
2023-01-17T16:36:15.086Z,95503.31
2023-01-17T16:38:43.490Z,95500.25
2023-01-17T16:41:12.826Z,95507.59
2023-01-17T16:43:39.691Z,95502.88
2023-01-17T16:46:06.559Z,95503.50
2023-01-17T16:48:33.150Z,95509.78
2023-01-17T16:50:59.529Z,95508.59
2023-01-17T16:53:28.432Z,95509.19
2023-01-17T16:55:57.882Z,95507.56
2023-01-17T16:58:24.481Z,95503.25
2023-01-17T17:00:51.007Z,95515.69
2023-01-17T17:03:21.347Z,95506.31
2023-01-17T17:05:58.866Z,95507.75
2023-01-17T17:08:25.925Z,95499.22
2023-01-17T17:10:52.380Z,95488.22
2023-01-17T17:13:18.872Z,95490.03
2023-01-17T17:15:45.602Z,95492.06
2023-01-17T17:18:17.725Z,95485.94
2023-01-17T17:20:45.323Z,95486.56
2023-01-17T17:23:12.273Z,95493.44
2023-01-17T17:25:41.668Z,95499.50
2023-01-17T17:28:10.293Z,95487.72
2023-01-17T17:30:36.748Z,95491.81
2023-01-17T17:33:04.532Z,95500.34
2023-01-17T17:35:33.912Z,95493.03
2023-01-17T17:38:01.656Z,95500.16
2023-01-17T17:40:28.145Z,95492.28
2023-01-17T17:42:54.551Z,95500.59
2023-01-17T17:45:20.951Z,95501.63
2023-01-17T17:47:47.325Z,95508.09
2023-01-17T17:50:13.885Z,95505.44
2023-01-17T17:52:43.943Z,95518.66
2023-01-17T17:55:11.166Z,95517.88
2023-01-17T17:57:37.805Z,95521.53
2023-01-17T18:00:05.043Z,95521.13
2023-01-17T18:02:33.201Z,95516.28
2023-01-17T18:05:02.316Z,95533.75
2023-01-17T18:07:32.346Z,95536.16
2023-01-17T18:09:58.800Z,95541.03
2023-01-17T18:12:25.435Z,95551.59
2023-01-17T18:14:51.856Z,95543.44
2023-01-17T18:17:20.258Z,95556.84
2023-01-17T18:19:46.960Z,95551.34
2023-01-17T18:22:13.715Z,95558.47
2023-01-17T18:24:40.465Z,95564.53
2023-01-17T18:27:06.985Z,95563.69
2023-01-17T18:29:33.361Z,95564.31
2023-01-17T18:31:59.758Z,95558.63
2023-01-17T18:34:29.181Z,95562.88
2023-01-17T18:36:56.905Z,95564.91
2023-01-17T18:39:26.422Z,95564.50
2023-01-17T18:41:54.013Z,95574.25
2023-01-17T18:44:22.292Z,95577.91
2023-01-17T18:46:50.197Z,95570.19
2023-01-17T18:49:19.031Z,95569.88
2023-01-17T18:51:48.946Z,95568.47
2023-01-17T18:54:16.565Z,95561.78
2023-01-17T18:56:43.034Z,95558.13
2023-01-17T18:59:11.990Z,95561.19
2023-01-17T19:01:42.064Z,95561.41
2023-01-17T19:04:10.550Z,95562.22
2023-01-17T19:06:42.760Z,95568.94
2023-01-17T19:09:11.491Z,95564.47
2023-01-17T19:11:40.521Z,95567.72
2023-01-17T19:14:07.286Z,95565.66
2023-01-17T19:16:40.673Z,95576.84
2023-01-17T19:19:10.549Z,95567.88
2023-01-17T19:21:37.161Z,95576.66
2023-01-17T19:24:03.683Z,95579.72
2023-01-17T19:26:30.263Z,95586.59
2023-01-17T19:28:58.880Z,95584.94
2023-01-17T19:31:30.305Z,95585.09
2023-01-17T19:33:58.759Z,95592.97
2023-01-17T19:36:32.337Z,95585.28
2023-01-17T19:39:04.786Z,95584.47
2023-01-17T19:41:34.524Z,95589.31
2023-01-17T19:44:06.176Z,95590.38
2023-01-17T19:46:34.669Z,95586.94
2023-01-17T19:49:01.759Z,95589.59
2023-01-17T19:51:28.797Z,95592.47
2023-01-17T19:53:56.031Z,95597.53
2023-01-17T19:56:25.757Z,95598.13
2023-01-17T19:58:52.885Z,95593.47
2023-01-17T20:01:28.670Z,95587.81
2023-01-17T20:03:57.949Z,95590.66
2023-01-17T20:06:28.617Z,95589.03
2023-01-17T20:08:55.672Z,95587.22
2023-01-17T20:11:25.025Z,95589.03
2023-01-17T20:13:54.318Z,95585.00
2023-01-17T20:16:22.040Z,95592.16
2023-01-17T20:18:50.517Z,95584.81
2023-01-17T20:21:26.172Z,95591.31
2023-01-17T20:23:54.619Z,95593.56
2023-01-17T20:26:31.286Z,95591.47
2023-01-17T20:28:58.102Z,95584.19
2023-01-17T20:31:25.585Z,95601.25
2023-01-17T20:33:54.296Z,95594.31
2023-01-17T20:36:23.553Z,95593.53
2023-01-17T20:38:50.759Z,95597.94
2023-01-17T20:41:20.175Z,95599.38
2023-01-17T20:43:52.508Z,95603.22
2023-01-17T20:46:21.329Z,95608.09
2023-01-17T20:48:49.970Z,95608.16
2023-01-17T20:51:17.891Z,95606.88
2023-01-17T20:53:46.376Z,95601.63
2023-01-17T20:56:15.301Z,95603.66
2023-01-17T20:58:42.486Z,95604.84
2023-01-17T21:01:11.259Z,95601.56
2023-01-17T21:03:39.238Z,95594.50
2023-01-17T21:06:08.626Z,95596.78
2023-01-17T21:08:37.519Z,95597.19
2023-01-17T21:11:06.000Z,95604.50
2023-01-17T21:13:32.551Z,95603.66
2023-01-17T21:15:59.457Z,95604.47
2023-01-17T21:18:27.733Z,95610.34
2023-01-17T21:20:54.357Z,95614.22
2023-01-17T21:23:20.982Z,95605.47
2023-01-17T21:25:55.643Z,95613.59
2023-01-17T21:28:24.708Z,95618.44
2023-01-17T21:30:51.956Z,95620.25
2023-01-17T21:33:20.154Z,95629.22
2023-01-17T21:35:46.827Z,95624.72
2023-01-17T21:38:14.315Z,95634.91
2023-01-17T21:40:42.283Z,95629.97
2023-01-17T21:43:08.961Z,95625.91
2023-01-17T21:45:40.416Z,95623.09
2023-01-17T21:48:12.174Z,95629.97
2023-01-17T21:50:39.185Z,95628.16
2023-01-17T21:53:06.673Z,95634.91
2023-01-17T21:55:51.480Z,95622.50
2023-01-17T21:58:36.210Z,95629.19
2023-01-17T22:01:15.883Z,95626.13
2023-01-17T22:03:54.658Z,95624.91
2023-01-17T22:06:23.387Z,95638.50
2023-01-17T22:08:50.199Z,95635.53
2023-01-17T22:11:19.007Z,95629.19
2023-01-17T22:13:47.132Z,95628.00
2023-01-17T22:16:16.325Z,95633.72
2023-01-17T22:18:44.423Z,95638.63
2023-01-17T22:21:13.466Z,95639.84
2023-01-17T22:23:44.435Z,95651.66
2023-01-17T22:26:11.720Z,95638.84
2023-01-17T22:28:39.456Z,95641.50
2023-01-17T22:31:26.987Z,95642.50
2023-01-17T22:33:58.142Z,95644.31
2023-01-17T22:36:24.631Z,95646.38
2023-01-17T22:38:51.238Z,95638.75
2023-01-17T22:41:19.978Z,95653.03
2023-01-17T22:43:48.771Z,95654.66
2023-01-17T22:46:19.594Z,95655.69
2023-01-17T22:48:46.832Z,95642.25
2023-01-17T22:51:15.326Z,95654.28
2023-01-17T22:53:50.129Z,95661.22
2023-01-17T22:56:21.631Z,95649.44
2023-01-17T22:58:49.041Z,95652.69
2023-01-17T23:01:27.654Z,95667.75
2023-01-17T23:03:57.384Z,95664.44
2023-01-17T23:06:27.831Z,95657.94
2023-01-17T23:08:57.889Z,95671.72
2023-01-17T23:11:47.255Z,95667.25
2023-01-17T23:14:19.384Z,95654.41
2023-01-17T23:17:07.725Z,95660.09
2023-01-17T23:19:39.222Z,95654.84
2023-01-17T23:22:17.378Z,95666.66
2023-01-17T23:24:50.077Z,95665.66
2023-01-17T23:27:36.918Z,95657.13
2023-01-17T23:30:15.625Z,95657.31
2023-01-17T23:32:51.021Z,95653.66
2023-01-17T23:35:19.146Z,95660.16
2023-01-17T23:38:04.063Z,95661.59
2023-01-17T23:40:32.340Z,95655.50
2023-01-17T23:43:17.338Z,95660.16
2023-01-17T23:45:44.212Z,95665.91
2023-01-17T23:48:10.893Z,95666.50
2023-01-17T23:50:44.055Z,95671.22
2023-01-17T23:53:15.364Z,95669.97
2023-01-17T23:55:43.386Z,95670.81
2023-01-17T23:58:11.345Z,95665.88
